createdAt,value
2022-11-27T00:00:56.609Z,0.00
2022-11-27T00:01:56.364Z,0.00
2022-11-27T00:02:56.500Z,0.00
2022-11-27T00:03:56.471Z,0.00
2022-11-27T00:04:56.333Z,0.00
2022-11-27T00:05:56.426Z,0.00
2022-11-27T00:06:56.355Z,0.00
2022-11-27T00:07:56.421Z,0.00
2022-11-27T00:08:56.308Z,0.00
2022-11-27T00:09:56.292Z,0.00
2022-11-27T00:10:56.284Z,0.00
2022-11-27T00:11:58.339Z,0.00
2022-11-27T00:12:59.024Z,0.00
2022-11-27T00:13:57.644Z,0.00
2022-11-27T00:14:56.217Z,0.00
2022-11-27T00:15:56.312Z,0.00
2022-11-27T00:16:56.223Z,0.00
2022-11-27T00:17:56.185Z,0.00
2022-11-27T00:18:56.911Z,0.00
2022-11-27T00:19:56.169Z,0.00
2022-11-27T00:20:56.145Z,0.00
2022-11-27T00:21:56.192Z,0.00
2022-11-27T00:22:56.141Z,0.00
2022-11-27T00:23:56.153Z,0.00
2022-11-27T00:24:56.125Z,0.00
2022-11-27T00:25:56.125Z,0.00
2022-11-27T00:26:56.106Z,0.00
2022-11-27T00:27:56.092Z,0.00
2022-11-27T00:28:56.136Z,0.00
2022-11-27T00:29:56.090Z,0.00
2022-11-27T00:30:56.106Z,0.00
2022-11-27T00:31:56.068Z,0.00
2022-11-27T00:32:56.036Z,0.00
2022-11-27T00:33:56.025Z,0.00
2022-11-27T00:34:56.090Z,0.00
2022-11-27T00:35:56.044Z,0.00
2022-11-27T00:36:55.983Z,0.00
2022-11-27T00:37:57.226Z,0.00
2022-11-27T00:38:55.964Z,0.00
2022-11-27T00:39:55.981Z,0.00
2022-11-27T00:40:57.402Z,0.00
2022-11-27T00:41:55.950Z,0.00
2022-11-27T00:42:55.929Z,0.00
2022-11-27T00:43:55.939Z,0.00
2022-11-27T00:44:55.937Z,0.00
2022-11-27T00:45:55.958Z,0.00
2022-11-27T00:46:55.929Z,0.00
2022-11-27T00:47:55.931Z,0.00
2022-11-27T00:48:55.890Z,0.00
2022-11-27T00:49:55.866Z,0.00
2022-11-27T00:50:55.840Z,0.00
2022-11-27T00:51:55.832Z,0.00
2022-11-27T00:52:55.957Z,0.00
2022-11-27T00:53:55.819Z,0.00
2022-11-27T00:54:55.811Z,0.00
2022-11-27T00:55:55.779Z,0.00
2022-11-27T00:56:55.782Z,0.00
2022-11-27T00:57:55.761Z,0.00
2022-11-27T00:58:55.777Z,0.00
2022-11-27T00:59:55.745Z,0.00
2022-11-27T01:00:55.716Z,0.00
2022-11-27T01:01:55.769Z,0.00
2022-11-27T01:02:55.810Z,0.00
2022-11-27T01:03:55.693Z,0.00
2022-11-27T01:04:55.711Z,0.00
2022-11-27T01:05:55.680Z,0.00
2022-11-27T01:06:55.726Z,0.00
2022-11-27T01:07:55.740Z,0.00
2022-11-27T01:08:55.657Z,0.00
2022-11-27T01:09:55.690Z,0.00
2022-11-27T01:10:55.619Z,0.00
2022-11-27T01:11:55.620Z,0.00
2022-11-27T01:12:55.606Z,0.00
2022-11-27T01:13:55.630Z,0.00
2022-11-27T01:14:55.576Z,0.00
2022-11-27T01:15:56.248Z,0.00
2022-11-27T01:16:55.552Z,0.00
2022-11-27T01:17:55.561Z,0.00
2022-11-27T01:18:55.525Z,0.00
2022-11-27T01:19:55.530Z,0.00
2022-11-27T01:20:55.510Z,0.00
2022-11-27T01:21:55.510Z,0.00
2022-11-27T01:22:55.481Z,0.00
2022-11-27T01:23:55.529Z,0.00
2022-11-27T01:24:55.474Z,0.00
2022-11-27T01:25:55.463Z,0.00
2022-11-27T01:26:55.444Z,0.00
2022-11-27T01:27:55.428Z,0.00
2022-11-27T01:28:55.418Z,0.00
2022-11-27T01:29:55.425Z,0.00
2022-11-27T01:30:55.445Z,0.00
2022-11-27T01:31:55.382Z,0.00
2022-11-27T01:32:55.394Z,0.00
2022-11-27T01:33:55.372Z,0.00
2022-11-27T01:34:55.369Z,0.00
2022-11-27T01:35:55.366Z,0.00
2022-11-27T01:36:55.358Z,0.00
2022-11-27T01:37:55.320Z,0.00
2022-11-27T01:38:55.430Z,0.00
2022-11-27T01:39:55.358Z,0.00
2022-11-27T01:40:55.305Z,0.00
2022-11-27T01:41:55.283Z,0.00
2022-11-27T01:42:55.268Z,0.00
2022-11-27T01:43:55.253Z,0.00
2022-11-27T01:44:55.259Z,0.00
2022-11-27T01:45:55.255Z,0.00
2022-11-27T01:46:55.305Z,0.00
2022-11-27T01:47:55.241Z,0.00
2022-11-27T01:48:55.250Z,0.00
2022-11-27T01:49:56.110Z,0.00
2022-11-27T01:50:55.191Z,0.00
2022-11-27T01:51:55.177Z,0.00
2022-11-27T01:52:55.167Z,0.00
2022-11-27T01:53:55.154Z,0.00
2022-11-27T01:54:55.134Z,0.00
2022-11-27T01:55:55.116Z,0.00
2022-11-27T01:56:55.194Z,0.00
2022-11-27T01:57:55.104Z,0.00
2022-11-27T01:58:55.116Z,0.00
2022-11-27T01:59:55.103Z,0.00
2022-11-27T02:00:55.061Z,0.00
2022-11-27T02:01:55.155Z,0.00
2022-11-27T02:02:55.164Z,0.00
2022-11-27T02:03:55.052Z,0.00
2022-11-27T02:04:55.039Z,0.00
2022-11-27T02:05:55.037Z,0.00
2022-11-27T02:06:55.089Z,0.00
2022-11-27T02:07:55.047Z,0.00
2022-11-27T02:08:55.010Z,0.00
2022-11-27T02:09:54.987Z,0.00
2022-11-27T02:10:54.999Z,0.00
2022-11-27T02:11:54.979Z,0.00
2022-11-27T02:12:54.973Z,0.00
2022-11-27T02:13:54.935Z,0.00
2022-11-27T02:14:54.922Z,0.00
2022-11-27T02:15:54.963Z,0.00
2022-11-27T02:16:54.901Z,0.00
2022-11-27T02:17:54.904Z,0.00
2022-11-27T02:18:54.870Z,0.00
2022-11-27T02:19:54.864Z,0.00
2022-11-27T02:20:54.861Z,0.00
2022-11-27T02:21:54.862Z,0.00
2022-11-27T02:22:54.902Z,0.00
2022-11-27T02:23:54.828Z,0.00
2022-11-27T02:24:54.803Z,0.00
2022-11-27T02:25:54.802Z,0.00
2022-11-27T02:26:54.788Z,0.00
2022-11-27T02:27:54.766Z,0.00
2022-11-27T02:28:54.815Z,0.00
2022-11-27T02:29:54.753Z,0.00
2022-11-27T02:30:54.845Z,0.00
2022-11-27T02:31:54.731Z,0.00
2022-11-27T02:32:54.717Z,0.00
2022-11-27T02:33:54.737Z,0.00
2022-11-27T02:34:54.717Z,0.00
2022-11-27T02:35:54.682Z,0.00
2022-11-27T02:36:54.677Z,0.00
2022-11-27T02:37:54.656Z,0.00
2022-11-27T02:38:54.691Z,0.00
2022-11-27T02:39:54.642Z,0.00
2022-11-27T02:40:54.652Z,0.00
2022-11-27T02:41:54.637Z,0.00
2022-11-27T02:42:54.646Z,0.00
2022-11-27T02:43:54.600Z,0.00
2022-11-27T02:44:54.635Z,0.00
2022-11-27T02:45:54.582Z,0.00
2022-11-27T02:46:54.627Z,0.00
2022-11-27T02:47:54.582Z,0.00
2022-11-27T02:48:54.571Z,0.00
2022-11-27T02:49:54.576Z,0.00
2022-11-27T02:50:54.551Z,0.00
2022-11-27T02:51:54.536Z,0.00
2022-11-27T02:52:54.531Z,0.00
2022-11-27T02:53:54.510Z,0.00
2022-11-27T02:54:54.474Z,0.00
2022-11-27T02:55:54.458Z,0.00
2022-11-27T02:56:54.467Z,0.00
2022-11-27T02:57:54.465Z,0.00
2022-11-27T02:58:54.451Z,0.00
2022-11-27T02:59:54.450Z,0.00
2022-11-27T03:00:54.416Z,0.00
2022-11-27T03:01:54.445Z,0.00
2022-11-27T03:02:54.440Z,0.00
2022-11-27T03:03:54.405Z,0.00
2022-11-27T03:04:54.397Z,0.00
2022-11-27T03:05:54.365Z,0.00
2022-11-27T03:06:54.370Z,0.00
2022-11-27T03:07:54.405Z,0.00
2022-11-27T03:08:54.334Z,0.00
2022-11-27T03:09:54.310Z,0.00
2022-11-27T03:10:54.350Z,0.00
2022-11-27T03:11:54.659Z,0.00
2022-11-27T03:12:54.269Z,0.00
2022-11-27T03:13:54.279Z,0.00
2022-11-27T03:14:54.258Z,0.00
2022-11-27T03:15:54.287Z,0.00
2022-11-27T03:16:54.258Z,0.00
2022-11-27T03:17:54.227Z,0.00
2022-11-27T03:18:54.225Z,0.00
2022-11-27T03:19:54.209Z,0.00
2022-11-27T03:20:54.222Z,0.00
2022-11-27T03:21:54.235Z,0.00
2022-11-27T03:22:54.216Z,0.00
2022-11-27T03:23:54.158Z,0.00
2022-11-27T03:24:54.150Z,0.00
2022-11-27T03:25:54.143Z,0.00
2022-11-27T03:26:54.143Z,0.00
2022-11-27T03:27:54.144Z,0.00
2022-11-27T03:28:54.123Z,0.00
2022-11-27T03:29:54.107Z,0.00
2022-11-27T03:30:54.123Z,0.00
2022-11-27T03:31:54.089Z,0.00
2022-11-27T03:32:54.110Z,0.00
2022-11-27T03:33:54.063Z,0.00
2022-11-27T03:34:54.085Z,0.00
2022-11-27T03:35:54.048Z,0.00
2022-11-27T03:36:54.032Z,0.00
2022-11-27T03:37:54.073Z,0.00
2022-11-27T03:38:53.988Z,0.00
2022-11-27T03:39:53.977Z,0.00
2022-11-27T03:40:53.983Z,0.00
2022-11-27T03:41:54.019Z,0.00
2022-11-27T03:42:53.942Z,0.00
2022-11-27T03:43:54.012Z,0.00
2022-11-27T03:44:53.928Z,0.00
2022-11-27T03:45:53.971Z,0.00
2022-11-27T03:46:54.013Z,0.00
2022-11-27T03:47:53.972Z,0.00
2022-11-27T03:48:53.904Z,0.00
2022-11-27T03:49:53.949Z,0.00
2022-11-27T03:50:53.894Z,0.00
2022-11-27T03:51:53.858Z,0.00
2022-11-27T03:52:53.887Z,0.00
2022-11-27T03:53:53.859Z,0.00
2022-11-27T03:54:53.813Z,0.00
2022-11-27T03:55:53.828Z,0.00
2022-11-27T03:56:53.827Z,0.00
2022-11-27T03:57:53.789Z,0.00
2022-11-27T03:58:53.778Z,0.00
2022-11-27T03:59:53.787Z,0.00
2022-11-27T04:00:53.786Z,0.00
2022-11-27T04:01:53.815Z,0.00
2022-11-27T04:02:53.750Z,0.00
2022-11-27T04:03:53.782Z,0.00
2022-11-27T04:04:53.715Z,0.00
2022-11-27T04:05:53.735Z,0.00
2022-11-27T04:06:53.683Z,0.00
2022-11-27T04:07:53.751Z,0.00
2022-11-27T04:08:53.703Z,0.00
2022-11-27T04:09:53.673Z,0.00
2022-11-27T04:10:53.663Z,0.00
2022-11-27T04:11:53.652Z,0.00
2022-11-27T04:12:53.613Z,0.00
2022-11-27T04:13:53.653Z,0.00
2022-11-27T04:14:53.614Z,0.00
2022-11-27T04:15:53.681Z,0.00
2022-11-27T04:16:53.610Z,0.00
2022-11-27T04:17:53.578Z,0.00
2022-11-27T04:18:53.578Z,0.00
2022-11-27T04:19:53.567Z,0.00
2022-11-27T04:20:53.533Z,0.00
2022-11-27T04:21:53.538Z,0.00
2022-11-27T04:22:53.528Z,0.00
2022-11-27T04:23:53.512Z,0.00
2022-11-27T04:24:53.505Z,0.00
2022-11-27T04:25:53.548Z,0.00
2022-11-27T04:26:53.505Z,0.00
2022-11-27T04:27:53.453Z,0.00
2022-11-27T04:28:53.474Z,0.00
2022-11-27T04:29:53.507Z,0.00
2022-11-27T04:30:53.436Z,0.00
2022-11-27T04:31:53.474Z,0.00
2022-11-27T04:32:53.904Z,0.00
2022-11-27T04:33:53.408Z,0.00
2022-11-27T04:34:53.386Z,0.00
2022-11-27T04:35:53.395Z,0.00
2022-11-27T04:36:53.371Z,0.00
2022-11-27T04:37:53.379Z,0.00
2022-11-27T04:38:53.337Z,0.00
2022-11-27T04:39:53.333Z,0.00
2022-11-27T04:40:53.340Z,0.00
2022-11-27T04:41:53.318Z,0.00
2022-11-27T04:42:53.349Z,0.00
2022-11-27T04:43:53.291Z,0.00
2022-11-27T04:44:53.274Z,0.00
2022-11-27T04:45:53.278Z,0.00
2022-11-27T04:46:53.351Z,0.00
2022-11-27T04:47:53.236Z,0.00
2022-11-27T04:48:53.268Z,0.00
2022-11-27T04:49:53.225Z,0.00
2022-11-27T04:50:53.247Z,0.00
2022-11-27T04:51:53.220Z,0.00
2022-11-27T04:52:53.214Z,0.00
2022-11-27T04:53:53.188Z,0.00
2022-11-27T04:54:58.309Z,0.00
2022-11-27T04:55:53.270Z,0.00
2022-11-27T04:56:53.172Z,0.00
2022-11-27T04:57:53.132Z,0.00
2022-11-27T04:58:53.126Z,0.00
2022-11-27T04:59:53.128Z,0.00
2022-11-27T05:00:53.166Z,0.00
2022-11-27T05:01:53.112Z,0.00
2022-11-27T05:02:53.129Z,0.00
2022-11-27T05:03:53.083Z,0.00
2022-11-27T05:04:53.102Z,0.00
2022-11-27T05:05:53.065Z,0.00
2022-11-27T05:06:53.043Z,0.00
2022-11-27T05:07:53.117Z,0.00
2022-11-27T05:08:53.041Z,0.00
2022-11-27T05:09:53.012Z,0.00
2022-11-27T05:10:53.040Z,0.00
2022-11-27T05:11:53.013Z,0.00
2022-11-27T05:12:52.985Z,0.00
2022-11-27T05:13:52.985Z,0.00
2022-11-27T05:14:52.966Z,0.00
2022-11-27T05:15:53.013Z,0.00
2022-11-27T05:16:52.951Z,0.00
2022-11-27T05:17:52.949Z,0.00
2022-11-27T05:18:52.925Z,0.00
2022-11-27T05:19:52.892Z,0.00
2022-11-27T05:20:52.882Z,0.00
2022-11-27T05:21:52.910Z,0.00
2022-11-27T05:22:52.875Z,0.00
2022-11-27T05:23:52.883Z,0.00
2022-11-27T05:24:52.868Z,0.00
2022-11-27T05:25:52.848Z,0.00
2022-11-27T05:26:52.821Z,0.00
2022-11-27T05:27:52.805Z,0.00
2022-11-27T05:28:52.876Z,0.00
2022-11-27T05:29:52.779Z,0.00
2022-11-27T05:30:52.780Z,0.00
2022-11-27T05:31:52.887Z,0.00
2022-11-27T05:32:52.766Z,0.00
2022-11-27T05:33:52.830Z,0.00
2022-11-27T05:34:52.763Z,0.00
2022-11-27T05:35:52.723Z,0.00
2022-11-27T05:36:52.788Z,0.00
2022-11-27T05:37:52.699Z,0.00
2022-11-27T05:38:52.697Z,0.00
2022-11-27T05:39:52.741Z,0.00
2022-11-27T05:40:52.667Z,0.00
2022-11-27T05:41:52.738Z,0.00
2022-11-27T05:42:52.677Z,0.00
2022-11-27T05:43:52.651Z,0.00
2022-11-27T05:44:57.887Z,0.00
2022-11-27T05:45:52.673Z,0.00
2022-11-27T05:46:52.666Z,0.00
2022-11-27T05:47:52.859Z,0.00
2022-11-27T05:48:52.585Z,0.00
2022-11-27T05:49:52.593Z,0.00
2022-11-27T05:50:52.563Z,0.00
2022-11-27T05:51:52.569Z,0.00
2022-11-27T05:52:52.552Z,0.00
2022-11-27T05:53:52.540Z,0.00
2022-11-27T05:54:52.545Z,0.00
2022-11-27T05:55:52.490Z,0.00
2022-11-27T05:56:52.519Z,0.00
2022-11-27T05:57:52.496Z,0.00
2022-11-27T05:58:52.487Z,0.00
2022-11-27T05:59:52.462Z,0.00
2022-11-27T06:00:52.478Z,0.00
2022-11-27T06:01:52.514Z,0.00
2022-11-27T06:02:52.571Z,0.00
2022-11-27T06:03:52.503Z,0.00
2022-11-27T06:04:52.804Z,0.00
2022-11-27T06:05:52.397Z,0.00
2022-11-27T06:06:52.404Z,0.00
2022-11-27T06:07:52.495Z,0.00
2022-11-27T06:08:52.399Z,0.00
2022-11-27T06:09:52.365Z,0.00
2022-11-27T06:10:52.349Z,0.00
2022-11-27T06:11:52.441Z,0.00
2022-11-27T06:12:52.336Z,0.00
2022-11-27T06:13:52.334Z,0.00
2022-11-27T06:14:52.287Z,0.00
2022-11-27T06:15:52.301Z,0.00
2022-11-27T06:16:52.297Z,0.00
2022-11-27T06:17:52.285Z,0.00
2022-11-27T06:18:52.249Z,0.00
2022-11-27T06:19:52.270Z,0.00
2022-11-27T06:20:53.182Z,0.00
2022-11-27T06:21:52.221Z,0.00
2022-11-27T06:22:52.224Z,0.00
2022-11-27T06:23:52.191Z,0.00
2022-11-27T06:24:52.216Z,0.00
2022-11-27T06:25:52.195Z,0.00
2022-11-27T06:26:52.173Z,0.00
2022-11-27T06:27:52.177Z,0.00
2022-11-27T06:28:52.179Z,0.00
2022-11-27T06:29:52.146Z,0.00
2022-11-27T06:30:52.149Z,0.00
2022-11-27T06:31:52.206Z,0.00
2022-11-27T06:32:52.093Z,0.00
2022-11-27T06:33:52.144Z,0.00
2022-11-27T06:34:52.084Z,0.00
2022-11-27T06:35:52.062Z,0.00
2022-11-27T06:36:52.049Z,0.00
2022-11-27T06:37:52.058Z,0.00
2022-11-27T06:38:52.034Z,0.00
2022-11-27T06:39:52.043Z,0.00
2022-11-27T06:40:52.016Z,0.00
2022-11-27T06:41:52.006Z,0.00
2022-11-27T06:42:51.994Z,0.00
2022-11-27T06:43:52.026Z,0.00
2022-11-27T06:44:51.967Z,0.00
2022-11-27T06:45:51.987Z,0.00
2022-11-27T06:46:51.954Z,0.00
2022-11-27T06:47:51.941Z,0.00
2022-11-27T06:48:51.951Z,0.00
2022-11-27T06:49:51.919Z,0.00
2022-11-27T06:50:51.967Z,0.00
2022-11-27T06:51:51.885Z,0.00
2022-11-27T06:52:51.889Z,0.00
2022-11-27T06:53:51.917Z,0.00
2022-11-27T06:54:51.873Z,0.00
2022-11-27T06:55:51.852Z,0.00
2022-11-27T06:56:51.892Z,0.00
2022-11-27T06:57:51.864Z,0.00
2022-11-27T06:58:51.880Z,0.00
2022-11-27T06:59:51.810Z,0.00
2022-11-27T07:00:51.833Z,0.00
2022-11-27T07:01:51.865Z,0.00
2022-11-27T07:02:51.770Z,0.00
2022-11-27T07:03:51.795Z,0.00
2022-11-27T07:04:51.770Z,0.00
2022-11-27T07:05:51.735Z,0.00
2022-11-27T07:06:51.722Z,0.00
2022-11-27T07:07:51.848Z,0.00
2022-11-27T07:08:51.747Z,0.00
2022-11-27T07:09:51.702Z,0.00
2022-11-27T07:10:51.705Z,0.00
2022-11-27T07:11:51.685Z,0.00
2022-11-27T07:12:51.665Z,0.00
2022-11-27T07:13:51.675Z,0.00
2022-11-27T07:14:51.678Z,0.00
2022-11-27T07:15:51.626Z,0.00
2022-11-27T07:16:51.778Z,0.00
2022-11-27T07:17:51.608Z,0.00
2022-11-27T07:18:51.595Z,0.00
2022-11-27T07:19:51.601Z,0.00
2022-11-27T07:20:56.234Z,0.00
2022-11-27T07:21:51.602Z,0.00
2022-11-27T07:22:51.560Z,0.00
2022-11-27T07:23:51.546Z,0.00
2022-11-27T07:24:51.549Z,0.00
2022-11-27T07:25:51.551Z,0.00
2022-11-27T07:26:51.533Z,0.00
2022-11-27T07:27:51.514Z,0.00
2022-11-27T07:28:51.495Z,0.00
2022-11-27T07:29:51.472Z,0.00
2022-11-27T07:30:51.474Z,0.00
2022-11-27T07:31:51.582Z,0.00
2022-11-27T07:32:51.442Z,0.00
2022-11-27T07:33:51.462Z,0.00
2022-11-27T07:34:51.435Z,0.00
2022-11-27T07:35:51.430Z,0.00
2022-11-27T07:36:51.426Z,0.00
2022-11-27T07:37:51.413Z,0.00
2022-11-27T07:38:51.383Z,0.00
2022-11-27T07:40:02.483Z,0.00
2022-11-27T07:40:53.765Z,0.00
2022-11-27T07:41:51.365Z,0.00
2022-11-27T07:42:51.382Z,0.00
2022-11-27T07:43:51.344Z,0.00
2022-11-27T07:44:51.343Z,0.00
2022-11-27T07:45:51.390Z,0.00
2022-11-27T07:46:51.290Z,0.00
2022-11-27T07:47:51.291Z,0.00
2022-11-27T07:48:51.278Z,0.00
2022-11-27T07:49:51.286Z,0.00
2022-11-27T07:50:51.280Z,0.00
2022-11-27T07:51:51.288Z,0.00
2022-11-27T07:52:51.232Z,0.00
2022-11-27T07:53:51.225Z,0.00
2022-11-27T07:54:51.206Z,0.00
2022-11-27T07:55:51.219Z,0.00
2022-11-27T07:56:51.232Z,0.00
2022-11-27T07:57:51.176Z,0.00
2022-11-27T07:58:51.167Z,0.00
2022-11-27T07:59:51.167Z,0.00
2022-11-27T08:00:51.218Z,0.00
2022-11-27T08:01:51.141Z,5.62
2022-11-27T08:02:51.111Z,5.62
2022-11-27T08:03:51.121Z,5.62
2022-11-27T08:04:51.174Z,5.62
2022-11-27T08:05:51.104Z,5.62
2022-11-27T08:06:51.098Z,5.62
2022-11-27T08:07:51.151Z,5.62
2022-11-27T08:08:51.063Z,5.62
2022-11-27T08:09:51.043Z,5.62
2022-11-27T08:10:51.038Z,5.62
2022-11-27T08:11:51.026Z,5.62
2022-11-27T08:12:51.068Z,5.62
2022-11-27T08:13:51.001Z,5.62
2022-11-27T08:14:51.002Z,5.62
2022-11-27T08:15:50.979Z,5.62
2022-11-27T08:16:51.079Z,5.62
2022-11-27T08:17:50.954Z,5.62
2022-11-27T08:18:50.969Z,5.62
2022-11-27T08:19:50.964Z,5.62
2022-11-27T08:20:50.938Z,5.62
2022-11-27T08:21:50.936Z,5.62
2022-11-27T08:22:50.938Z,5.62
2022-11-27T08:23:50.894Z,5.62
2022-11-27T08:24:50.903Z,5.62
2022-11-27T08:25:50.861Z,5.62
2022-11-27T08:26:50.881Z,5.62
2022-11-27T08:27:50.855Z,5.62
2022-11-27T08:28:50.858Z,5.62
2022-11-27T08:29:50.824Z,5.62
2022-11-27T08:30:50.825Z,5.62
2022-11-27T08:31:50.867Z,5.62
2022-11-27T08:32:50.806Z,5.62
2022-11-27T08:33:50.808Z,5.62
2022-11-27T08:34:50.770Z,11.25
2022-11-27T08:35:50.775Z,5.62
2022-11-27T08:36:50.761Z,11.25
2022-11-27T08:37:50.746Z,11.25
2022-11-27T08:38:50.740Z,11.25
2022-11-27T08:39:50.718Z,11.25
2022-11-27T08:40:50.737Z,11.25
2022-11-27T08:41:50.726Z,11.25
2022-11-27T08:42:50.795Z,11.25
2022-11-27T08:43:50.716Z,11.25
2022-11-27T08:44:50.667Z,16.88
2022-11-27T08:45:50.737Z,16.88
2022-11-27T08:46:50.665Z,16.88
2022-11-27T08:47:50.637Z,16.88
2022-11-27T08:48:50.623Z,16.88
2022-11-27T08:49:50.595Z,16.88
2022-11-27T08:50:50.620Z,22.50
2022-11-27T08:51:50.585Z,22.50
2022-11-27T08:52:50.586Z,22.50
2022-11-27T08:53:50.593Z,28.12
2022-11-27T08:54:54.535Z,28.12
2022-11-27T08:55:50.548Z,28.12
2022-11-27T08:56:50.524Z,22.50
2022-11-27T08:57:50.515Z,22.50
2022-11-27T08:58:50.511Z,22.50
2022-11-27T08:59:50.532Z,28.12
2022-11-27T09:00:50.557Z,22.50
2022-11-27T09:01:50.494Z,22.50
2022-11-27T09:02:50.475Z,28.12
2022-11-27T09:03:50.497Z,28.12
2022-11-27T09:04:50.513Z,28.12
2022-11-27T09:05:50.520Z,28.12
2022-11-27T09:06:52.949Z,28.12
2022-11-27T09:07:50.458Z,28.12
2022-11-27T09:08:50.396Z,28.12
2022-11-27T09:09:50.376Z,28.12
2022-11-27T09:10:50.414Z,28.12
2022-11-27T09:11:50.375Z,28.12
2022-11-27T09:12:50.362Z,28.12
2022-11-27T09:13:50.393Z,33.75
2022-11-27T09:14:50.349Z,28.12
2022-11-27T09:15:50.309Z,28.12
2022-11-27T09:16:50.411Z,28.12
2022-11-27T09:17:50.307Z,33.75
2022-11-27T09:18:50.318Z,33.75
2022-11-27T09:19:50.285Z,33.75
2022-11-27T09:20:50.281Z,39.38
2022-11-27T09:21:50.257Z,39.38
2022-11-27T09:22:50.261Z,33.75
2022-11-27T09:23:50.272Z,39.38
2022-11-27T09:24:50.230Z,33.75
2022-11-27T09:25:50.214Z,39.38
2022-11-27T09:26:50.227Z,33.75
2022-11-27T09:27:50.182Z,39.38
2022-11-27T09:28:50.227Z,45.00
2022-11-27T09:29:50.214Z,39.38
2022-11-27T09:30:50.169Z,45.00
2022-11-27T09:31:50.280Z,45.00
2022-11-27T09:32:50.147Z,50.62
2022-11-27T09:33:50.136Z,45.00
2022-11-27T09:34:50.153Z,50.62
2022-11-27T09:35:50.137Z,50.62
2022-11-27T09:36:50.116Z,45.00
2022-11-27T09:37:50.090Z,39.38
2022-11-27T09:38:50.079Z,45.00
2022-11-27T09:39:50.055Z,45.00
2022-11-27T09:40:50.081Z,50.62
2022-11-27T09:41:50.059Z,50.62
2022-11-27T09:42:50.029Z,50.62
2022-11-27T09:43:50.029Z,45.00
2022-11-27T09:44:49.993Z,56.25
2022-11-27T09:45:50.138Z,50.62
2022-11-27T09:46:49.981Z,50.62
2022-11-27T09:47:49.975Z,50.62
2022-11-27T09:48:49.963Z,50.62
2022-11-27T09:49:49.961Z,56.25
2022-11-27T09:50:50.017Z,50.62
2022-11-27T09:51:49.953Z,50.62
2022-11-27T09:52:49.947Z,50.62
2022-11-27T09:53:49.901Z,50.62
2022-11-27T09:54:52.642Z,50.62
2022-11-27T09:55:49.884Z,56.25
2022-11-27T09:56:49.942Z,61.88
2022-11-27T09:57:49.885Z,50.62
2022-11-27T09:58:49.854Z,56.25
2022-11-27T09:59:49.881Z,50.62
2022-11-27T10:00:49.855Z,56.25
2022-11-27T10:01:51.188Z,45.00
2022-11-27T10:02:49.940Z,45.00
2022-11-27T10:03:49.795Z,50.62
2022-11-27T10:05:14.214Z,50.62
2022-11-27T10:05:49.792Z,39.38
2022-11-27T10:06:49.765Z,45.00
2022-11-27T10:07:49.815Z,50.62
2022-11-27T10:08:49.768Z,39.38
2022-11-27T10:09:49.737Z,45.00
2022-11-27T10:10:49.749Z,50.62
2022-11-27T10:11:49.723Z,50.62
2022-11-27T10:12:49.703Z,45.00
2022-11-27T10:13:49.703Z,45.00
2022-11-27T10:14:49.664Z,50.62
2022-11-27T10:15:49.743Z,45.00
2022-11-27T10:16:49.695Z,39.38
2022-11-27T10:17:49.647Z,45.00
2022-11-27T10:18:49.637Z,50.62
2022-11-27T10:19:49.639Z,56.25
2022-11-27T10:20:49.614Z,50.62
2022-11-27T10:21:49.632Z,39.38
2022-11-27T10:22:49.650Z,39.38
2022-11-27T10:23:49.585Z,39.38
2022-11-27T10:24:49.569Z,45.00
2022-11-27T10:25:49.566Z,45.00
2022-11-27T10:26:49.603Z,39.38
2022-11-27T10:27:49.587Z,39.38
2022-11-27T10:28:49.556Z,39.38
2022-11-27T10:29:50.472Z,39.38
2022-11-27T10:30:49.521Z,39.38
2022-11-27T10:31:49.552Z,33.75
2022-11-27T10:32:56.978Z,33.75
2022-11-27T10:33:49.486Z,39.38
2022-11-27T10:34:49.498Z,33.75
2022-11-27T10:35:49.465Z,33.75
2022-11-27T10:36:49.457Z,33.75
2022-11-27T10:37:49.472Z,39.38
2022-11-27T10:38:49.456Z,33.75
2022-11-27T10:39:49.429Z,33.75
2022-11-27T10:40:49.415Z,39.38
2022-11-27T10:41:50.115Z,39.38
2022-11-27T10:42:49.380Z,39.38
2022-11-27T10:43:49.381Z,45.00
2022-11-27T10:44:49.402Z,39.38
2022-11-27T10:45:49.414Z,39.38
2022-11-27T10:46:49.321Z,39.38
2022-11-27T10:47:49.330Z,39.38
2022-11-27T10:48:49.346Z,39.38
2022-11-27T10:49:49.311Z,39.38
2022-11-27T10:50:49.350Z,45.00
2022-11-27T10:51:49.316Z,39.38
2022-11-27T10:52:52.364Z,50.62
2022-11-27T10:53:49.284Z,56.25
2022-11-27T10:54:49.242Z,50.62
2022-11-27T10:55:49.277Z,45.00
2022-11-27T10:56:49.270Z,45.00
2022-11-27T10:57:49.198Z,39.38
2022-11-27T10:58:49.230Z,45.00
2022-11-27T10:59:49.188Z,39.38
2022-11-27T11:00:49.974Z,45.00
2022-11-27T11:01:49.271Z,56.25
2022-11-27T11:02:49.241Z,56.25
2022-11-27T11:03:49.175Z,56.25
2022-11-27T11:05:09.115Z,61.88
2022-11-27T11:06:18.641Z,61.88
2022-11-27T11:06:49.130Z,56.25
2022-11-27T11:07:49.176Z,56.25
2022-11-27T11:08:49.117Z,50.62
2022-11-27T11:09:49.106Z,50.62
2022-11-27T11:10:49.086Z,50.62
2022-11-27T11:11:49.092Z,50.62
2022-11-27T11:12:49.078Z,50.62
2022-11-27T11:13:49.023Z,56.25
2022-11-27T11:14:49.031Z,45.00
2022-11-27T11:15:51.755Z,45.00
2022-11-27T11:16:49.033Z,45.00
2022-11-27T11:17:49.075Z,45.00
2022-11-27T11:18:49.007Z,39.38
2022-11-27T11:19:48.972Z,39.38
2022-11-27T11:20:48.963Z,33.75
2022-11-27T11:21:48.947Z,33.75
2022-11-27T11:22:48.939Z,39.38
2022-11-27T11:23:48.965Z,33.75
2022-11-27T11:24:48.935Z,33.75
2022-11-27T11:25:48.905Z,33.75
2022-11-27T11:26:48.925Z,33.75
2022-11-27T11:27:48.897Z,33.75
2022-11-27T11:28:48.883Z,28.12
2022-11-27T11:29:48.883Z,28.12
2022-11-27T11:30:48.864Z,28.12
2022-11-27T11:31:48.924Z,28.12
2022-11-27T11:32:48.840Z,22.50
2022-11-27T11:33:48.828Z,28.12
2022-11-27T11:34:48.809Z,28.12
2022-11-27T11:35:48.980Z,22.50
2022-11-27T11:36:48.775Z,22.50
2022-11-27T11:37:48.778Z,22.50
2022-11-27T11:38:48.911Z,28.12
2022-11-27T11:39:48.802Z,22.50
2022-11-27T11:40:48.744Z,22.50
2022-11-27T11:41:48.753Z,22.50
2022-11-27T11:42:48.718Z,22.50
2022-11-27T11:43:48.724Z,22.50
2022-11-27T11:44:48.746Z,22.50
2022-11-27T11:45:48.979Z,22.50
2022-11-27T11:46:48.770Z,22.50
2022-11-27T11:47:48.759Z,22.50
2022-11-27T11:48:48.650Z,22.50
2022-11-27T11:49:48.644Z,22.50
2022-11-27T11:50:49.453Z,22.50
2022-11-27T11:51:48.645Z,22.50
2022-11-27T11:52:48.614Z,22.50
2022-11-27T11:53:48.603Z,22.50
2022-11-27T11:54:48.584Z,22.50
2022-11-27T11:55:48.588Z,16.88
2022-11-27T11:56:48.615Z,22.50
2022-11-27T11:57:48.632Z,22.50
2022-11-27T11:58:48.552Z,22.50
2022-11-27T11:59:48.546Z,22.50
2022-11-27T12:01:11.689Z,22.50
2022-11-27T12:01:48.628Z,22.50
2022-11-27T12:02:48.553Z,22.50
2022-11-27T12:03:48.575Z,22.50
2022-11-27T12:04:48.576Z,16.88
2022-11-27T12:05:48.463Z,22.50
2022-11-27T12:06:48.477Z,22.50
2022-11-27T12:07:52.231Z,22.50
2022-11-27T12:08:48.440Z,22.50
2022-11-27T12:09:48.521Z,22.50
2022-11-27T12:10:48.436Z,22.50
2022-11-27T12:11:48.398Z,22.50
2022-11-27T12:12:48.448Z,22.50
2022-11-27T12:13:48.452Z,22.50
2022-11-27T12:14:48.393Z,16.88
2022-11-27T12:15:48.379Z,22.50
2022-11-27T12:16:48.449Z,22.50
2022-11-27T12:17:48.394Z,22.50
2022-11-27T12:18:48.377Z,16.88
2022-11-27T12:19:48.356Z,22.50
2022-11-27T12:20:48.363Z,22.50
2022-11-27T12:21:48.299Z,22.50
2022-11-27T12:22:48.316Z,16.88
2022-11-27T12:23:48.591Z,22.50
2022-11-27T12:24:48.302Z,16.88
2022-11-27T12:25:48.522Z,22.50
2022-11-27T12:26:48.243Z,16.88
2022-11-27T12:27:48.262Z,16.88
2022-11-27T12:28:48.228Z,16.88
2022-11-27T12:29:48.611Z,16.88
2022-11-27T12:30:48.197Z,16.88
2022-11-27T12:31:48.412Z,16.88
2022-11-27T12:32:48.215Z,16.88
2022-11-27T12:33:48.192Z,16.88
2022-11-27T12:34:48.223Z,16.88
2022-11-27T12:35:48.167Z,16.88
2022-11-27T12:36:48.195Z,16.88
2022-11-27T12:37:48.102Z,16.88
2022-11-27T12:38:48.110Z,16.88
2022-11-27T12:39:48.098Z,16.88
2022-11-27T12:40:48.136Z,16.88
2022-11-27T12:41:48.071Z,11.25
2022-11-27T12:42:48.099Z,16.88
2022-11-27T12:43:48.061Z,16.88
2022-11-27T12:44:48.074Z,16.88
2022-11-27T12:45:48.164Z,16.88
2022-11-27T12:46:48.041Z,16.88
2022-11-27T12:47:48.401Z,11.25
2022-11-27T12:48:48.009Z,11.25
2022-11-27T12:49:48.072Z,11.25
2022-11-27T12:50:47.993Z,11.25
2022-11-27T12:51:47.958Z,11.25
2022-11-27T12:52:48.002Z,11.25
2022-11-27T12:53:47.974Z,11.25
2022-11-27T12:54:47.946Z,11.25
2022-11-27T12:55:47.925Z,11.25
2022-11-27T12:56:47.947Z,11.25
2022-11-27T12:57:48.245Z,11.25
2022-11-27T12:58:47.884Z,11.25
2022-11-27T12:59:47.883Z,11.25
2022-11-27T13:00:47.882Z,11.25
2022-11-27T13:01:48.041Z,11.25
2022-11-27T13:02:47.900Z,11.25
2022-11-27T13:03:47.877Z,11.25
2022-11-27T13:04:47.874Z,11.25
2022-11-27T13:05:47.813Z,11.25
2022-11-27T13:06:47.809Z,11.25
2022-11-27T13:07:47.787Z,11.25
2022-11-27T13:08:52.298Z,11.25
2022-11-27T13:09:47.804Z,11.25